Bernardo Larroude, Argentina
Current Conditions -  °F | °C
As of 6:00 AM on Saturday 20 Dec 2014 (Local Time) from SAOC Reporting Station
Thunderstorm Thunderstorm  
Wind Chill: 18°   Ceiling: Unl
Heat Index: 18°   Visibility: 3mi
Dew Point: 14°   Wind: 24mph
Humidity: 77%   Direction: 180°S
Pressure: 29.59"   Gusts: 36mph
Location:  35.03°S, 63.57°W
Report Text: SAOC 200900Z 18021G31KT 5000 TSRA SCT030SCT040CB 18/14 Q1002
Loading
Personal Weather Stations






























Interactive Weather Map New forecast layout! Learn more

10-Day Weather Forecast

Advertisements
Track Severe Weather on mobile